sensor_id;sensor_type;location;lat;lon;timestamp;temperature;humidity
61591;DHT22;57639;52.410;-1.966;2023-02-15T00:00:48;18.20;47.30
61591;DHT22;57639;52.410;-1.966;2023-02-15T00:03:57;18.10;47.00
61591;DHT22;57639;52.410;-1.966;2023-02-15T00:07:03;18.10;47.00
61591;DHT22;57639;52.410;-1.966;2023-02-15T00:10:09;18.10;46.90
61591;DHT22;57639;52.410;-1.966;2023-02-15T00:13:19;18.00;47.00
61591;DHT22;57639;52.410;-1.966;2023-02-15T00:16:25;17.90;47.00
61591;DHT22;57639;52.410;-1.966;2023-02-15T00:19:31;17.90;47.10
61591;DHT22;57639;52.410;-1.966;2023-02-15T00:22:37;17.80;47.10
61591;DHT22;57639;52.410;-1.966;2023-02-15T00:25:44;17.80;47.10
61591;DHT22;57639;52.410;-1.966;2023-02-15T00:28:53;17.70;47.20
61591;DHT22;57639;52.410;-1.966;2023-02-15T00:32:01;17.70;47.10
61591;DHT22;57639;52.410;-1.966;2023-02-15T00:35:07;17.60;47.10
61591;DHT22;57639;52.410;-1.966;2023-02-15T00:38:14;17.60;47.00
61591;DHT22;57639;52.410;-1.966;2023-02-15T00:41:20;17.60;47.10
61591;DHT22;57639;52.410;-1.966;2023-02-15T00:44:29;17.60;46.90
61591;DHT22;57639;52.410;-1.966;2023-02-15T00:47:33;17.50;46.90
61591;DHT22;57639;52.410;-1.966;2023-02-15T00:50:39;17.50;47.00
61591;DHT22;57639;52.410;-1.966;2023-02-15T00:53:45;17.40;47.00
61591;DHT22;57639;52.410;-1.966;2023-02-15T00:56:51;17.40;47.00
61591;DHT22;57639;52.410;-1.966;2023-02-15T01:00:00;17.40;47.00
61591;DHT22;57639;52.410;-1.966;2023-02-15T01:03:06;17.30;46.90
61591;DHT22;57639;52.410;-1.966;2023-02-15T01:06:11;17.30;47.00
61591;DHT22;57639;52.410;-1.966;2023-02-15T01:09:17;17.30;47.00
61591;DHT22;57639;52.410;-1.966;2023-02-15T01:12:21;17.20;46.90
61591;DHT22;57639;52.410;-1.966;2023-02-15T01:15:30;17.20;47.00
61591;DHT22;57639;52.410;-1.966;2023-02-15T01:18:36;17.10;47.00
61591;DHT22;57639;52.410;-1.966;2023-02-15T01:21:42;17.10;47.00
61591;DHT22;57639;52.410;-1.966;2023-02-15T01:24:49;17.10;47.00
61591;DHT22;57639;52.410;-1.966;2023-02-15T01:27:55;17.10;47.10
61591;DHT22;57639;52.410;-1.966;2023-02-15T01:31:08;17.10;47.10
61591;DHT22;57639;52.410;-1.966;2023-02-15T01:34:12;17.00;47.20
61591;DHT22;57639;52.410;-1.966;2023-02-15T01:37:18;17.00;47.10
61591;DHT22;57639;52.410;-1.966;2023-02-15T01:40:24;16.90;47.10
61591;DHT22;57639;52.410;-1.966;2023-02-15T01:43:39;17.00;47.10
61591;DHT22;57639;52.410;-1.966;2023-02-15T01:46:52;16.90;47.00
61591;DHT22;57639;52.410;-1.966;2023-02-15T01:50:04;16.90;47.10
61591;DHT22;57639;52.410;-1.966;2023-02-15T01:53:15;16.90;47.40
61591;DHT22;57639;52.410;-1.966;2023-02-15T01:56:24;16.80;47.50
61591;DHT22;57639;52.410;-1.966;2023-02-15T01:59:32;16.80;47.70
61591;DHT22;57639;52.410;-1.966;2023-02-15T02:02:42;16.80;47.60
61591;DHT22;57639;52.410;-1.966;2023-02-15T02:05:49;16.70;47.80
61591;DHT22;57639;52.410;-1.966;2023-02-15T02:08:55;16.70;47.70
61591;DHT22;57639;52.410;-1.966;2023-02-15T02:12:02;16.70;47.90
61591;DHT22;57639;52.410;-1.966;2023-02-15T02:15:09;16.60;47.90
61591;DHT22;57639;52.410;-1.966;2023-02-15T02:18:27;16.60;47.90
61591;DHT22;57639;52.410;-1.966;2023-02-15T02:25:43;16.60;48.00
61591;DHT22;57639;52.410;-1.966;2023-02-15T02:29:21;16.60;48.00
61591;DHT22;57639;52.410;-1.966;2023-02-15T02:33:07;16.50;48.00
61591;DHT22;57639;52.410;-1.966;2023-02-15T02:36:18;16.50;48.00
61591;DHT22;57639;52.410;-1.966;2023-02-15T02:39:30;16.50;48.10
61591;DHT22;57639;52.410;-1.966;2023-02-15T02:42:41;16.50;48.10
61591;DHT22;57639;52.410;-1.966;2023-02-15T02:45:53;16.40;48.00
61591;DHT22;57639;52.410;-1.966;2023-02-15T02:49:03;16.40;48.00
61591;DHT22;57639;52.410;-1.966;2023-02-15T02:52:38;16.40;48.00
61591;DHT22;57639;52.410;-1.966;2023-02-15T02:55:47;16.40;47.90
61591;DHT22;57639;52.410;-1.966;2023-02-15T02:58:58;16.40;48.00
61591;DHT22;57639;52.410;-1.966;2023-02-15T03:02:07;16.40;48.00
61591;DHT22;57639;52.410;-1.966;2023-02-15T03:05:21;16.40;47.90
61591;DHT22;57639;52.410;-1.966;2023-02-15T03:08:38;16.30;48.00
61591;DHT22;57639;52.410;-1.966;2023-02-15T03:11:47;16.40;48.00
61591;DHT22;57639;52.410;-1.966;2023-02-15T03:14:56;16.30;48.00
61591;DHT22;57639;52.410;-1.966;2023-02-15T03:18:04;16.30;48.00
61591;DHT22;57639;52.410;-1.966;2023-02-15T03:21:13;16.30;47.90
61591;DHT22;57639;52.410;-1.966;2023-02-15T03:24:29;16.30;47.90
61591;DHT22;57639;52.410;-1.966;2023-02-15T03:27:38;16.30;47.90
61591;DHT22;57639;52.410;-1.966;2023-02-15T03:30:48;16.30;47.90
61591;DHT22;57639;52.410;-1.966;2023-02-15T03:33:57;16.30;47.90
61591;DHT22;57639;52.410;-1.966;2023-02-15T03:37:11;16.30;47.80
61591;DHT22;57639;52.410;-1.966;2023-02-15T03:40:21;16.30;47.80
61591;DHT22;57639;52.410;-1.966;2023-02-15T03:43:49;16.30;47.70
61591;DHT22;57639;52.410;-1.966;2023-02-15T03:47:02;16.30;47.70
61591;DHT22;57639;52.410;-1.966;2023-02-15T03:50:12;16.20;47.70
61591;DHT22;57639;52.410;-1.966;2023-02-15T03:53:35;16.30;47.70
61591;DHT22;57639;52.410;-1.966;2023-02-15T03:56:42;16.20;47.70
61591;DHT22;57639;52.410;-1.966;2023-02-15T04:00:13;16.20;47.70
61591;DHT22;57639;52.410;-1.966;2023-02-15T04:03:39;16.20;47.70
61591;DHT22;57639;52.410;-1.966;2023-02-15T04:06:46;16.20;47.70
61591;DHT22;57639;52.410;-1.966;2023-02-15T04:09:54;16.20;47.70
61591;DHT22;57639;52.410;-1.966;2023-02-15T04:13:14;16.20;47.80
61591;DHT22;57639;52.410;-1.966;2023-02-15T04:16:20;16.10;47.70
61591;DHT22;57639;52.410;-1.966;2023-02-15T04:19:23;16.10;47.70
61591;DHT22;57639;52.410;-1.966;2023-02-15T04:22:45;16.10;47.70
61591;DHT22;57639;52.410;-1.966;2023-02-15T04:26:09;16.10;47.70
61591;DHT22;57639;52.410;-1.966;2023-02-15T04:29:15;16.10;47.80
61591;DHT22;57639;52.410;-1.966;2023-02-15T04:32:21;16.10;47.80
61591;DHT22;57639;52.410;-1.966;2023-02-15T04:35:27;16.00;47.80
61591;DHT22;57639;52.410;-1.966;2023-02-15T04:38:34;16.00;47.80
61591;DHT22;57639;52.410;-1.966;2023-02-15T04:41:43;16.00;47.80
61591;DHT22;57639;52.410;-1.966;2023-02-15T04:44:50;16.00;47.80
61591;DHT22;57639;52.410;-1.966;2023-02-15T04:47:56;15.90;47.90
61591;DHT22;57639;52.410;-1.966;2023-02-15T04:51:05;15.90;48.00
61591;DHT22;57639;52.410;-1.966;2023-02-15T04:54:12;15.90;48.00
61591;DHT22;57639;52.410;-1.966;2023-02-15T04:57:21;15.80;48.00
61591;DHT22;57639;52.410;-1.966;2023-02-15T05:00:27;15.90;48.00
61591;DHT22;57639;52.410;-1.966;2023-02-15T05:03:33;15.80;48.00
61591;DHT22;57639;52.410;-1.966;2023-02-15T05:06:39;15.80;48.10
61591;DHT22;57639;52.410;-1.966;2023-02-15T05:09:45;15.80;48.00
61591;DHT22;57639;52.410;-1.966;2023-02-15T05:12:52;15.80;48.00
61591;DHT22;57639;52.410;-1.966;2023-02-15T05:15:58;15.80;48.00
61591;DHT22;57639;52.410;-1.966;2023-02-15T05:19:05;15.80;48.00
61591;DHT22;57639;52.410;-1.966;2023-02-15T05:22:11;15.80;48.10
61591;DHT22;57639;52.410;-1.966;2023-02-15T05:25:17;15.70;48.00
61591;DHT22;57639;52.410;-1.966;2023-02-15T05:28:41;15.70;48.00
61591;DHT22;57639;52.410;-1.966;2023-02-15T05:31:47;15.70;48.00
61591;DHT22;57639;52.410;-1.966;2023-02-15T05:34:53;15.70;48.00
61591;DHT22;57639;52.410;-1.966;2023-02-15T05:37:59;15.60;48.10
61591;DHT22;57639;52.410;-1.966;2023-02-15T05:41:05;15.70;48.00
61591;DHT22;57639;52.410;-1.966;2023-02-15T05:44:14;15.60;48.00
61591;DHT22;57639;52.410;-1.966;2023-02-15T05:47:20;15.60;48.00
61591;DHT22;57639;52.410;-1.966;2023-02-15T05:50:27;15.60;48.00
61591;DHT22;57639;52.410;-1.966;2023-02-15T05:53:36;15.60;47.90
61591;DHT22;57639;52.410;-1.966;2023-02-15T05:56:42;15.60;47.90
61591;DHT22;57639;52.410;-1.966;2023-02-15T05:59:51;15.60;47.90
61591;DHT22;57639;52.410;-1.966;2023-02-15T06:02:57;15.60;47.80
61591;DHT22;57639;52.410;-1.966;2023-02-15T06:06:03;15.60;47.80
61591;DHT22;57639;52.410;-1.966;2023-02-15T06:09:10;15.60;47.70
61591;DHT22;57639;52.410;-1.966;2023-02-15T06:12:16;15.60;47.70
61591;DHT22;57639;52.410;-1.966;2023-02-15T06:15:25;15.60;47.70
61591;DHT22;57639;52.410;-1.966;2023-02-15T06:18:31;15.60;47.70
61591;DHT22;57639;52.410;-1.966;2023-02-15T06:21:37;15.60;47.60
61591;DHT22;57639;52.410;-1.966;2023-02-15T06:24:44;15.50;47.60
61591;DHT22;57639;52.410;-1.966;2023-02-15T06:27:47;15.60;47.60
61591;DHT22;57639;52.410;-1.966;2023-02-15T06:30:57;15.60;47.70
61591;DHT22;57639;52.410;-1.966;2023-02-15T06:34:03;15.50;47.60
61591;DHT22;57639;52.410;-1.966;2023-02-15T06:37:10;15.50;47.60
61591;DHT22;57639;52.410;-1.966;2023-02-15T06:40:16;15.50;47.60
61591;DHT22;57639;52.410;-1.966;2023-02-15T06:43:22;15.50;47.60
61591;DHT22;57639;52.410;-1.966;2023-02-15T06:46:31;15.50;47.60
61591;DHT22;57639;52.410;-1.966;2023-02-15T06:49:37;15.50;47.70
61591;DHT22;57639;52.410;-1.966;2023-02-15T06:52:43;15.40;47.70
61591;DHT22;57639;52.410;-1.966;2023-02-15T06:55:49;15.40;47.70
61591;DHT22;57639;52.410;-1.966;2023-02-15T06:58:55;15.40;47.70
61591;DHT22;57639;52.410;-1.966;2023-02-15T07:02:04;15.30;47.70
61591;DHT22;57639;52.410;-1.966;2023-02-15T07:05:11;15.30;47.80
61591;DHT22;57639;52.410;-1.966;2023-02-15T07:08:17;15.30;47.90
61591;DHT22;57639;52.410;-1.966;2023-02-15T07:11:23;15.30;47.80
61591;DHT22;57639;52.410;-1.966;2023-02-15T07:14:44;15.30;47.60
61591;DHT22;57639;52.410;-1.966;2023-02-15T07:17:53;15.50;47.60
61591;DHT22;57639;52.410;-1.966;2023-02-15T07:20:59;15.60;47.50
61591;DHT22;57639;52.410;-1.966;2023-02-15T07:24:06;15.70;47.40
61591;DHT22;57639;52.410;-1.966;2023-02-15T07:27:12;16.00;47.10
61591;DHT22;57639;52.410;-1.966;2023-02-15T07:30:18;16.20;46.80
61591;DHT22;57639;52.410;-1.966;2023-02-15T07:33:26;16.40;46.40
61591;DHT22;57639;52.410;-1.966;2023-02-15T07:36:32;16.60;46.10
61591;DHT22;57639;52.410;-1.966;2023-02-15T07:39:38;16.70;45.90
61591;DHT22;57639;52.410;-1.966;2023-02-15T07:42:44;16.80;46.00
61591;DHT22;57639;52.410;-1.966;2023-02-15T07:45:50;16.80;45.80
61591;DHT22;57639;52.410;-1.966;2023-02-15T07:48:59;17.00;45.90
61591;DHT22;57639;52.410;-1.966;2023-02-15T07:52:06;17.20;45.80
61591;DHT22;57639;52.410;-1.966;2023-02-15T07:55:12;17.30;45.40
61591;DHT22;57639;52.410;-1.966;2023-02-15T07:58:19;17.50;45.30
61591;DHT22;57639;52.410;-1.966;2023-02-15T08:01:45;17.60;45.10
61591;DHT22;57639;52.410;-1.966;2023-02-15T08:04:53;17.80;45.60
61591;DHT22;57639;52.410;-1.966;2023-02-15T08:07:59;17.90;45.30
61591;DHT22;57639;52.410;-1.966;2023-02-15T08:11:13;18.10;45.10
61591;DHT22;57639;52.410;-1.966;2023-02-15T08:14:32;18.10;44.80
61591;DHT22;57639;52.410;-1.966;2023-02-15T08:17:38;18.20;44.80
61591;DHT22;57639;52.410;-1.966;2023-02-15T08:20:51;18.10;44.80
61591;DHT22;57639;52.410;-1.966;2023-02-15T08:23:57;18.10;44.70
61591;DHT22;57639;52.410;-1.966;2023-02-15T08:27:04;18.10;44.80
61591;DHT22;57639;52.410;-1.966;2023-02-15T08:30:11;18.00;44.80
61591;DHT22;57639;52.410;-1.966;2023-02-15T08:33:18;17.90;45.00
61591;DHT22;57639;52.410;-1.966;2023-02-15T08:36:28;17.80;45.10
61591;DHT22;57639;52.410;-1.966;2023-02-15T08:39:32;17.80;45.10
61591;DHT22;57639;52.410;-1.966;2023-02-15T08:42:39;17.70;45.20
61591;DHT22;57639;52.410;-1.966;2023-02-15T08:45:45;17.70;45.20
61591;DHT22;57639;52.410;-1.966;2023-02-15T08:48:51;17.60;45.10
61591;DHT22;57639;52.410;-1.966;2023-02-15T08:52:00;17.50;45.30
61591;DHT22;57639;52.410;-1.966;2023-02-15T08:55:06;17.40;45.40
61591;DHT22;57639;52.410;-1.966;2023-02-15T08:58:12;17.30;45.60
61591;DHT22;57639;52.410;-1.966;2023-02-15T09:01:20;17.30;45.60
61591;DHT22;57639;52.410;-1.966;2023-02-15T09:04:27;17.30;45.70
61591;DHT22;57639;52.410;-1.966;2023-02-15T09:07:35;17.30;45.70
61591;DHT22;57639;52.410;-1.966;2023-02-15T09:10:41;17.40;45.70
61591;DHT22;57639;52.410;-1.966;2023-02-15T09:13:48;17.50;45.60
61591;DHT22;57639;52.410;-1.966;2023-02-15T09:16:55;17.60;45.50
61591;DHT22;57639;52.410;-1.966;2023-02-15T09:20:01;17.80;45.40
61591;DHT22;57639;52.410;-1.966;2023-02-15T09:23:10;18.00;45.10
61591;DHT22;57639;52.410;-1.966;2023-02-15T09:26:20;18.20;44.90
61591;DHT22;57639;52.410;-1.966;2023-02-15T09:29:26;18.30;44.70
61591;DHT22;57639;52.410;-1.966;2023-02-15T09:32:32;18.50;44.40
61591;DHT22;57639;52.410;-1.966;2023-02-15T09:35:38;18.60;44.20
61591;DHT22;57639;52.410;-1.966;2023-02-15T09:39:01;18.70;44.00
61591;DHT22;57639;52.410;-1.966;2023-02-15T09:42:36;18.80;43.80
61591;DHT22;57639;52.410;-1.966;2023-02-15T09:46:29;19.00;43.80
61591;DHT22;57639;52.410;-1.966;2023-02-15T09:50:09;19.00;43.70
61591;DHT22;57639;52.410;-1.966;2023-02-15T09:53:34;19.00;43.70
61591;DHT22;57639;52.410;-1.966;2023-02-15T10:00:59;18.90;43.80
61591;DHT22;57639;52.410;-1.966;2023-02-15T10:08:00;18.90;43.90
61591;DHT22;57639;52.410;-1.966;2023-02-15T10:11:33;18.90;43.90
61591;DHT22;57639;52.410;-1.966;2023-02-15T10:15:06;18.80;43.90
61591;DHT22;57639;52.410;-1.966;2023-02-15T10:18:32;18.70;44.00
61591;DHT22;57639;52.410;-1.966;2023-02-15T10:21:52;18.60;44.20
61591;DHT22;57639;52.410;-1.966;2023-02-15T10:25:24;18.60;44.30
61591;DHT22;57639;52.410;-1.966;2023-02-15T10:28:39;18.50;44.50
61591;DHT22;57639;52.410;-1.966;2023-02-15T10:31:49;18.40;44.60
61591;DHT22;57639;52.410;-1.966;2023-02-15T10:35:01;18.40;44.70
61591;DHT22;57639;52.410;-1.966;2023-02-15T10:38:18;18.30;45.00
61591;DHT22;57639;52.410;-1.966;2023-02-15T10:41:34;18.30;45.10
61591;DHT22;57639;52.410;-1.966;2023-02-15T10:44:55;18.20;45.30
61591;DHT22;57639;52.410;-1.966;2023-02-15T10:48:21;18.20;45.50
61591;DHT22;57639;52.410;-1.966;2023-02-15T10:51:39;18.30;45.40
61591;DHT22;57639;52.410;-1.966;2023-02-15T10:54:50;18.50;45.20
61591;DHT22;57639;52.410;-1.966;2023-02-15T10:58:05;18.60;44.90
61591;DHT22;57639;52.410;-1.966;2023-02-15T11:01:18;18.70;44.60
61591;DHT22;57639;52.410;-1.966;2023-02-15T11:04:45;18.80;44.50
61591;DHT22;57639;52.410;-1.966;2023-02-15T11:07:59;18.90;44.30
61591;DHT22;57639;52.410;-1.966;2023-02-15T11:11:08;19.00;44.20
61591;DHT22;57639;52.410;-1.966;2023-02-15T11:14:20;19.10;44.10
61591;DHT22;57639;52.410;-1.966;2023-02-15T11:17:33;19.00;44.10
61591;DHT22;57639;52.410;-1.966;2023-02-15T11:20:44;19.00;44.10
61591;DHT22;57639;52.410;-1.966;2023-02-15T11:23:56;19.00;44.20
61591;DHT22;57639;52.410;-1.966;2023-02-15T11:27:04;19.00;44.40
61591;DHT22;57639;52.410;-1.966;2023-02-15T11:30:14;18.90;44.50
61591;DHT22;57639;52.410;-1.966;2023-02-15T11:33:23;18.90;44.50
61591;DHT22;57639;52.410;-1.966;2023-02-15T11:36:32;18.80;44.50
61591;DHT22;57639;52.410;-1.966;2023-02-15T11:39:42;18.80;44.50
61591;DHT22;57639;52.410;-1.966;2023-02-15T11:42:56;18.70;44.80
61591;DHT22;57639;52.410;-1.966;2023-02-15T11:46:02;18.60;44.90
61591;DHT22;57639;52.410;-1.966;2023-02-15T11:49:22;18.60;45.00
61591;DHT22;57639;52.410;-1.966;2023-02-15T11:52:28;18.60;45.20
61591;DHT22;57639;52.410;-1.966;2023-02-15T11:55:37;18.50;45.30
61591;DHT22;57639;52.410;-1.966;2023-02-15T11:58:45;18.40;45.40
61591;DHT22;57639;52.410;-1.966;2023-02-15T12:01:53;18.40;45.50
61591;DHT22;57639;52.410;-1.966;2023-02-15T12:05:01;18.30;45.50
61591;DHT22;57639;52.410;-1.966;2023-02-15T12:08:16;18.20;45.60
61591;DHT22;57639;52.410;-1.966;2023-02-15T12:11:29;18.20;45.70
61591;DHT22;57639;52.410;-1.966;2023-02-15T12:14:47;18.10;45.90
61591;DHT22;57639;52.410;-1.966;2023-02-15T12:17:54;18.10;46.00
61591;DHT22;57639;52.410;-1.966;2023-02-15T12:21:03;18.10;45.90
61591;DHT22;57639;52.410;-1.966;2023-02-15T12:24:15;18.00;46.10
61591;DHT22;57639;52.410;-1.966;2023-02-15T12:27:27;18.00;46.20
61591;DHT22;57639;52.410;-1.966;2023-02-15T12:30:35;18.00;46.10
61591;DHT22;57639;52.410;-1.966;2023-02-15T12:33:42;18.00;46.20
61591;DHT22;57639;52.410;-1.966;2023-02-15T12:36:52;18.10;46.30
61591;DHT22;57639;52.410;-1.966;2023-02-15T12:40:10;18.10;46.20
61591;DHT22;57639;52.410;-1.966;2023-02-15T12:43:31;18.30;45.90
61591;DHT22;57639;52.410;-1.966;2023-02-15T12:46:38;18.60;45.50
61591;DHT22;57639;52.410;-1.966;2023-02-15T12:49:44;18.80;45.20
61591;DHT22;57639;52.410;-1.966;2023-02-15T12:53:06;18.90;44.90
61591;DHT22;57639;52.410;-1.966;2023-02-15T12:56:12;19.00;44.80
61591;DHT22;57639;52.410;-1.966;2023-02-15T12:59:24;19.10;44.60
61591;DHT22;57639;52.410;-1.966;2023-02-15T13:02:36;19.10;44.70
61591;DHT22;57639;52.410;-1.966;2023-02-15T13:05:49;19.10;44.50
61591;DHT22;57639;52.410;-1.966;2023-02-15T13:08:58;19.10;44.50
61591;DHT22;57639;52.410;-1.966;2023-02-15T13:12:15;19.10;44.70
61591;DHT22;57639;52.410;-1.966;2023-02-15T13:15:32;19.10;44.60
61591;DHT22;57639;52.410;-1.966;2023-02-15T13:18:43;19.00;45.00
61591;DHT22;57639;52.410;-1.966;2023-02-15T13:21:51;18.90;45.00
61591;DHT22;57639;52.410;-1.966;2023-02-15T13:24:58;18.90;45.40
61591;DHT22;57639;52.410;-1.966;2023-02-15T13:28:05;18.80;45.40
61591;DHT22;57639;52.410;-1.966;2023-02-15T13:31:19;18.70;45.10
61591;DHT22;57639;52.410;-1.966;2023-02-15T13:34:30;18.60;45.50
61591;DHT22;57639;52.410;-1.966;2023-02-15T13:37:49;18.60;45.30
61591;DHT22;57639;52.410;-1.966;2023-02-15T13:41:03;18.60;45.50
61591;DHT22;57639;52.410;-1.966;2023-02-15T13:44:18;18.50;45.60
61591;DHT22;57639;52.410;-1.966;2023-02-15T13:47:34;18.40;45.80
61591;DHT22;57639;52.410;-1.966;2023-02-15T13:50:57;18.40;45.90
61591;DHT22;57639;52.410;-1.966;2023-02-15T13:54:28;18.30;46.00
61591;DHT22;57639;52.410;-1.966;2023-02-15T13:57:51;18.30;46.00
61591;DHT22;57639;52.410;-1.966;2023-02-15T14:01:08;18.20;46.20
61591;DHT22;57639;52.410;-1.966;2023-02-15T14:04:31;18.10;46.20
61591;DHT22;57639;52.410;-1.966;2023-02-15T14:07:54;18.10;46.40
61591;DHT22;57639;52.410;-1.966;2023-02-15T14:11:04;18.10;46.30
61591;DHT22;57639;52.410;-1.966;2023-02-15T14:14:32;18.10;46.50
61591;DHT22;57639;52.410;-1.966;2023-02-15T14:17:51;18.00;46.50
61591;DHT22;57639;52.410;-1.966;2023-02-15T14:21:09;18.00;46.50
61591;DHT22;57639;52.410;-1.966;2023-02-15T14:24:22;18.00;46.70
61591;DHT22;57639;52.410;-1.966;2023-02-15T14:27:43;17.90;46.70
61591;DHT22;57639;52.410;-1.966;2023-02-15T14:30:50;17.90;46.70
61591;DHT22;57639;52.410;-1.966;2023-02-15T14:33:57;18.00;46.70
61591;DHT22;57639;52.410;-1.966;2023-02-15T14:37:04;18.10;46.70
61591;DHT22;57639;52.410;-1.966;2023-02-15T14:43:47;18.60;45.90
61591;DHT22;57639;52.410;-1.966;2023-02-15T14:46:58;18.80;45.50
61591;DHT22;57639;52.410;-1.966;2023-02-15T14:50:44;19.00;45.30
61591;DHT22;57639;52.410;-1.966;2023-02-15T15:00:46;19.20;44.90
61591;DHT22;57639;52.410;-1.966;2023-02-15T15:03:55;19.10;44.90
61591;DHT22;57639;52.410;-1.966;2023-02-15T15:07:09;19.10;45.10
61591;DHT22;57639;52.410;-1.966;2023-02-15T15:10:51;19.10;45.20
61591;DHT22;57639;52.410;-1.966;2023-02-15T15:13:59;19.00;45.30
61591;DHT22;57639;52.410;-1.966;2023-02-15T15:17:06;19.00;45.40
61591;DHT22;57639;52.410;-1.966;2023-02-15T15:20:42;18.90;45.50
61591;DHT22;57639;52.410;-1.966;2023-02-15T15:23:50;18.90;45.40
61591;DHT22;57639;52.410;-1.966;2023-02-15T15:31:02;18.80;45.70
61591;DHT22;57639;52.410;-1.966;2023-02-15T15:34:18;18.80;45.70
61591;DHT22;57639;52.410;-1.966;2023-02-15T15:37:58;18.70;46.00
61591;DHT22;57639;52.410;-1.966;2023-02-15T15:41:17;18.60;46.10
61591;DHT22;57639;52.410;-1.966;2023-02-15T15:44:55;18.60;46.20
61591;DHT22;57639;52.410;-1.966;2023-02-15T15:48:23;18.50;46.20
61591;DHT22;57639;52.410;-1.966;2023-02-15T15:51:33;18.50;46.10
61591;DHT22;57639;52.410;-1.966;2023-02-15T15:54:40;18.40;46.40
61591;DHT22;57639;52.410;-1.966;2023-02-15T15:57:50;18.30;46.40
61591;DHT22;57639;52.410;-1.966;2023-02-15T16:00:59;18.30;46.40
61591;DHT22;57639;52.410;-1.966;2023-02-15T16:04:22;18.30;46.50
61591;DHT22;57639;52.410;-1.966;2023-02-15T16:07:26;18.20;46.70
61591;DHT22;57639;52.410;-1.966;2023-02-15T16:10:34;18.10;46.70
61591;DHT22;57639;52.410;-1.966;2023-02-15T16:13:41;18.10;46.80
61591;DHT22;57639;52.410;-1.966;2023-02-15T16:16:51;18.10;46.90
61591;DHT22;57639;52.410;-1.966;2023-02-15T16:20:11;18.00;46.90
61591;DHT22;57639;52.410;-1.966;2023-02-15T16:27:18;17.90;47.20
61591;DHT22;57639;52.410;-1.966;2023-02-15T16:30:29;17.80;46.90
61591;DHT22;57639;52.410;-1.966;2023-02-15T16:33:37;17.80;47.00
61591;DHT22;57639;52.410;-1.966;2023-02-15T16:36:50;17.80;47.20
61591;DHT22;57639;52.410;-1.966;2023-02-15T16:39:59;17.90;47.10
61591;DHT22;57639;52.410;-1.966;2023-02-15T16:43:05;18.00;47.10
61591;DHT22;57639;52.410;-1.966;2023-02-15T16:46:24;18.20;46.90
61591;DHT22;57639;52.410;-1.966;2023-02-15T16:49:38;18.50;46.50
61591;DHT22;57639;52.410;-1.966;2023-02-15T16:52:47;18.70;46.10
61591;DHT22;57639;52.410;-1.966;2023-02-15T16:55:55;18.90;45.80
61591;DHT22;57639;52.410;-1.966;2023-02-15T16:59:00;19.00;45.50
61591;DHT22;57639;52.410;-1.966;2023-02-15T17:02:12;19.10;45.20
61591;DHT22;57639;52.410;-1.966;2023-02-15T17:05:20;19.30;45.00
61591;DHT22;57639;52.410;-1.966;2023-02-15T17:08:31;19.30;45.00
61591;DHT22;57639;52.410;-1.966;2023-02-15T17:11:41;19.20;45.10
61591;DHT22;57639;52.410;-1.966;2023-02-15T17:14:54;19.20;45.20
61591;DHT22;57639;52.410;-1.966;2023-02-15T17:18:03;19.20;45.20
61591;DHT22;57639;52.410;-1.966;2023-02-15T17:21:13;19.20;45.20
61591;DHT22;57639;52.410;-1.966;2023-02-15T17:24:32;19.20;45.30
61591;DHT22;57639;52.410;-1.966;2023-02-15T17:27:40;19.10;45.50
61591;DHT22;57639;52.410;-1.966;2023-02-15T17:30:47;19.00;45.60
61591;DHT22;57639;52.410;-1.966;2023-02-15T17:33:53;19.00;45.80
61591;DHT22;57639;52.410;-1.966;2023-02-15T17:37:01;19.00;45.90
61591;DHT22;57639;52.410;-1.966;2023-02-15T17:40:18;18.90;46.10
61591;DHT22;57639;52.410;-1.966;2023-02-15T17:43:22;18.90;46.30
61591;DHT22;57639;52.410;-1.966;2023-02-15T17:46:34;18.90;46.60
61591;DHT22;57639;52.410;-1.966;2023-02-15T17:49:40;18.80;46.70
61591;DHT22;57639;52.410;-1.966;2023-02-15T17:52:46;18.80;47.20
61591;DHT22;57639;52.410;-1.966;2023-02-15T17:55:56;18.80;48.30
61591;DHT22;57639;52.410;-1.966;2023-02-15T17:59:00;18.80;50.20
61591;DHT22;57639;52.410;-1.966;2023-02-15T18:02:10;18.80;51.20
61591;DHT22;57639;52.410;-1.966;2023-02-15T18:05:32;18.80;50.80
61591;DHT22;57639;52.410;-1.966;2023-02-15T18:08:52;18.80;50.00
61591;DHT22;57639;52.410;-1.966;2023-02-15T18:12:19;18.70;50.60
61591;DHT22;57639;52.410;-1.966;2023-02-15T18:15:24;18.70;49.30
61591;DHT22;57639;52.410;-1.966;2023-02-15T18:18:30;18.60;49.00
61591;DHT22;57639;52.410;-1.966;2023-02-15T18:21:36;18.60;48.90
61591;DHT22;57639;52.410;-1.966;2023-02-15T18:24:44;18.50;48.80
61591;DHT22;57639;52.410;-1.966;2023-02-15T18:27:51;18.40;48.70
61591;DHT22;57639;52.410;-1.966;2023-02-15T18:30:57;18.40;48.70
61591;DHT22;57639;52.410;-1.966;2023-02-15T18:34:05;18.30;48.60
61591;DHT22;57639;52.410;-1.966;2023-02-15T18:37:14;18.30;48.60
61591;DHT22;57639;52.410;-1.966;2023-02-15T18:40:22;18.30;48.60
61591;DHT22;57639;52.410;-1.966;2023-02-15T18:43:32;18.20;48.60
61591;DHT22;57639;52.410;-1.966;2023-02-15T18:46:36;18.10;48.60
61591;DHT22;57639;52.410;-1.966;2023-02-15T18:49:43;18.10;48.60
61591;DHT22;57639;52.410;-1.966;2023-02-15T18:52:50;18.10;48.70
61591;DHT22;57639;52.410;-1.966;2023-02-15T18:55:56;18.10;49.80
61591;DHT22;57639;52.410;-1.966;2023-02-15T18:59:05;18.10;49.70
61591;DHT22;57639;52.410;-1.966;2023-02-15T19:02:12;18.10;48.70
61591;DHT22;57639;52.410;-1.966;2023-02-15T19:05:17;18.00;48.60
61591;DHT22;57639;52.410;-1.966;2023-02-15T19:08:24;18.00;48.50
61591;DHT22;57639;52.410;-1.966;2023-02-15T19:11:30;17.90;48.70
61591;DHT22;57639;52.410;-1.966;2023-02-15T19:14:40;17.80;48.60
61591;DHT22;57639;52.410;-1.966;2023-02-15T19:17:47;17.80;48.60
61591;DHT22;57639;52.410;-1.966;2023-02-15T19:20:54;17.70;48.60
61591;DHT22;57639;52.410;-1.966;2023-02-15T19:24:03;17.70;48.60
61591;DHT22;57639;52.410;-1.966;2023-02-15T19:27:19;17.70;48.70
61591;DHT22;57639;52.410;-1.966;2023-02-15T19:30:30;17.60;48.60
61591;DHT22;57639;52.410;-1.966;2023-02-15T19:33:37;17.60;48.60
61591;DHT22;57639;52.410;-1.966;2023-02-15T19:36:44;17.60;48.60
61591;DHT22;57639;52.410;-1.966;2023-02-15T19:39:51;17.60;48.50
61591;DHT22;57639;52.410;-1.966;2023-02-15T19:42:56;17.60;49.00
61591;DHT22;57639;52.410;-1.966;2023-02-15T19:46:08;17.50;48.70
61591;DHT22;57639;52.410;-1.966;2023-02-15T19:49:13;17.50;48.80
61591;DHT22;57639;52.410;-1.966;2023-02-15T19:52:20;17.60;48.80
61591;DHT22;57639;52.410;-1.966;2023-02-15T19:55:29;17.70;48.80
61591;DHT22;57639;52.410;-1.966;2023-02-15T19:58:33;17.90;48.40
61591;DHT22;57639;52.410;-1.966;2023-02-15T20:01:43;18.10;48.10
61591;DHT22;57639;52.410;-1.966;2023-02-15T20:04:49;18.40;47.60
61591;DHT22;57639;52.410;-1.966;2023-02-15T20:07:56;18.60;47.20
61591;DHT22;57639;52.410;-1.966;2023-02-15T20:11:00;18.80;46.70
61591;DHT22;57639;52.410;-1.966;2023-02-15T20:14:10;19.00;46.40
61591;DHT22;57639;52.410;-1.966;2023-02-15T20:17:20;19.10;46.00